Time;durP1;ratioP1;P1;durP2;ratioP2;P2;SDS_P1;SDS_P2;PMS_P1;PMS_P2;Temp;Humidity;BMP_temperature;BMP_pressure;BME280_temperature;BME280_humidity;BME280_pressure;Samples;Min_cycle;Max_cycle;Signal;HPM_P1;HPM_P2
2023/05/01 00:00:53;;;;;;;11.00;6.05;;;;;;;8.96;65.37;102057.47;7388629;19;20034;-59
2023/05/01 00:03:20;;;;;;;11.05;5.90;;;;;;;8.74;66.04;102056.78;7387024;19;20014;-59
2023/05/01 00:05:47;;;;;;;12.23;6.22;;;;;;;8.77;65.77;102057.47;7393262;19;20063;-60
2023/05/01 00:08:15;;;;;;;10.23;5.57;;;;;;;8.82;65.74;102052.00;7394886;19;20610;-58
2023/05/01 00:10:42;;;;;;;12.80;6.10;;;;;;;9.14;64.42;102041.72;7395768;19;20048;-58
2023/05/01 00:13:09;;;;;;;11.40;6.00;;;;;;;9.03;65.02;102040.41;7395855;19;20014;-59
2023/05/01 00:15:36;;;;;;;11.88;5.90;;;;;;;9.13;64.52;102040.00;7391460;19;20022;-59
2023/05/01 00:18:03;;;;;;;12.32;6.10;;;;;;;9.25;63.99;102029.72;7395938;19;20051;-59
2023/05/01 00:20:30;;;;;;;14.40;5.93;;;;;;;9.25;63.83;102037.63;7394762;19;20025;-59
2023/05/01 00:22:57;;;;;;;14.00;6.25;;;;;;;9.22;63.69;102029.00;7393754;19;20015;-58
2023/05/01 00:25:24;;;;;;;11.82;6.28;;;;;;;9.19;64.26;102029.13;7393108;19;20045;-59
2023/05/01 00:27:51;;;;;;;10.85;6.35;;;;;;;9.21;64.16;102030.78;7393584;19;20487;-60
2023/05/01 00:30:18;;;;;;;14.73;6.80;;;;;;;9.21;63.87;102024.66;7394764;19;20035;-59
2023/05/01 00:32:45;;;;;;;11.95;6.68;;;;;;;9.12;64.27;102027.72;7395171;19;20019;-58
2023/05/01 00:35:12;;;;;;;11.40;6.47;;;;;;;9.18;63.80;102023.00;7392722;19;20500;-59
2023/05/01 00:37:39;;;;;;;12.32;7.18;;;;;;;9.18;64.11;102019.50;7394225;19;20015;-59
2023/05/01 00:40:07;;;;;;;14.63;7.35;;;;;;;9.17;64.14;102020.44;7394000;19;20491;-58
2023/05/01 00:42:36;;;;;;;15.38;8.02;;;;;;;9.19;63.94;102021.19;7395193;19;20014;-59
2023/05/01 00:45:03;;;;;;;15.27;8.48;;;;;;;9.17;63.98;102021.28;7391895;19;20022;-59
2023/05/01 00:47:30;;;;;;;18.70;8.73;;;;;;;9.12;64.24;102015.38;7393071;19;20048;-59
2023/05/01 00:49:58;;;;;;;15.55;8.10;;;;;;;9.08;64.26;102018.22;7392592;19;20378;-59
2023/05/01 00:52:25;;;;;;;14.90;8.43;;;;;;;9.07;64.31;102011.22;7394155;19;20344;-59
2023/05/01 00:54:53;;;;;;;15.07;8.90;;;;;;;9.08;64.31;102011.16;7389790;19;20032;-59
2023/05/01 00:57:21;;;;;;;15.55;9.02;;;;;;;8.99;64.67;102001.00;7393873;19;20014;-59
2023/05/01 00:59:48;;;;;;;18.88;8.85;;;;;;;9.09;64.40;102004.94;7393807;19;20084;-58
2023/05/01 01:02:15;;;;;;;16.58;9.15;;;;;;;9.06;64.41;101997.16;7393771;19;20022;-58
2023/05/01 01:04:45;;;;;;;15.07;8.88;;;;;;;8.99;64.63;101993.94;7393128;19;20055;-58
2023/05/01 01:07:30;;;;;;;16.27;8.80;;;;;;;8.98;64.68;101994.88;7393313;19;20059;-58
2023/05/01 01:10:40;;;;;;;18.00;8.80;;;;;;;8.93;64.85;101994.25;7393916;19;20505;-58
2023/05/01 01:13:41;;;;;;;17.42;8.32;;;;;;;8.90;64.91;101994.38;7392590;19;20469;-59
2023/05/01 01:16:14;;;;;;;13.75;7.65;;;;;;;8.89;65.07;101989.16;7388046;19;20018;-59
2023/05/01 01:18:55;;;;;;;16.58;7.95;;;;;;;8.89;65.16;101989.16;7393228;19;20010;-59
2023/05/01 01:21:31;;;;;;;13.65;7.38;;;;;;;8.83;65.40;101986.81;7393849;19;20019;-58
2023/05/01 01:24:20;;;;;;;13.40;7.70;;;;;;;8.82;65.48;101985.13;7390900;19;20035;-59
2023/05/01 01:27:01;;;;;;;13.57;7.63;;;;;;;8.51;66.14;101986.53;7393187;19;20014;-59
2023/05/01 01:29:50;;;;;;;12.25;7.47;;;;;;;8.72;65.53;101982.03;7392854;19;20357;-59
2023/05/01 01:32:47;;;;;;;16.90;8.30;;;;;;;8.63;65.83;101982.47;7393754;19;20015;-58
2023/05/01 01:35:19;;;;;;;14.15;8.15;;;;;;;8.40;66.93;101981.72;7391126;19;20018;-59
2023/05/01 01:38:34;;;;;;;14.93;8.73;;;;;;;8.57;66.43;101970.38;7393168;19;20159;-59
2023/05/01 01:41:13;;;;;;;14.60;8.40;;;;;;;8.53;66.37;101968.81;7390768;19;20022;-59
2023/05/01 01:43:45;;;;;;;15.02;8.40;;;;;;;8.56;66.16;101965.19;7392711;19;20365;-59
2023/05/01 01:46:16;;;;;;;13.05;7.72;;;;;;;8.50;66.02;101961.03;7390525;19;20028;-59
2023/05/01 01:48:47;;;;;;;16.05;8.75;;;;;;;8.52;65.94;101956.53;7390607;19;20138;-59
2023/05/01 01:51:19;;;;;;;17.70;9.13;;;;;;;8.55;65.98;101948.50;7391144;19;20019;-59
2023/05/01 01:53:50;;;;;;;15.40;9.82;;;;;;;8.49;66.14;101954.03;7392339;19;20010;-59
2023/05/01 01:56:20;;;;;;;18.70;9.77;;;;;;;8.47;66.00;101943.56;7389966;19;20021;-60
2023/05/01 01:58:47;;;;;;;17.50;9.77;;;;;;;8.49;65.98;101943.47;7392203;19;20047;-60
2023/05/01 02:01:17;;;;;;;17.58;10.25;;;;;;;8.47;65.80;101934.75;7392178;19;20043;-59
2023/05/01 02:03:46;;;;;;;16.98;10.23;;;;;;;8.37;66.30;101936.09;7392386;19;20022;-60
2023/05/01 02:06:16;;;;;;;18.50;10.48;;;;;;;8.36;66.38;101932.59;7389629;19;20022;-60
2023/05/01 02:08:47;;;;;;;18.75;10.25;;;;;;;8.41;65.83;101927.13;7391439;19;20014;-60
2023/05/01 02:11:17;;;;;;;17.02;9.65;;;;;;;8.37;65.97;101925.53;7391612;19;20018;-59
2023/05/01 02:13:45;;;;;;;17.98;10.02;;;;;;;8.35;65.82;101922.94;7391750;19;20025;-60
2023/05/01 02:16:13;;;;;;;14.82;9.00;;;;;;;8.25;66.25;101924.31;7388873;19;20016;-60
2023/05/01 02:18:42;;;;;;;14.93;9.20;;;;;;;8.22;66.18;101924.44;7390703;19;20035;-60
2023/05/01 02:21:11;;;;;;;16.08;9.02;;;;;;;8.18;66.45;101926.34;7385800;19;20098;-60
2023/05/01 02:23:38;;;;;;;15.85;8.90;;;;;;;8.19;66.10;101924.56;7389005;19;20032;-60
2023/05/01 02:26:07;;;;;;;14.95;8.85;;;;;;;7.91;67.08;101922.31;7389356;19;20022;-60
2023/05/01 02:28:40;;;;;;;13.90;8.23;;;;;;;7.53;68.29;101919.53;7388809;19;20023;-61
2023/05/01 02:31:08;;;;;;;13.93;7.88;;;;;;;7.30;69.08;101917.88;7391130;19;20019;-60
2023/05/01 02:33:35;;;;;;;13.38;7.80;;;;;;;7.24;69.81;101920.75;7390914;19;20025;-57
2023/05/01 02:36:04;;;;;;;14.35;7.90;;;;;;;7.67;68.37;101913.66;7389078;19;20047;-57
2023/05/01 02:38:31;;;;;;;12.98;6.80;;;;;;;7.97;66.86;101908.84;7390745;19;20029;-59
2023/05/01 02:41:00;;;;;;;12.98;7.40;;;;;;;8.05;66.25;101901.44;7389359;19;20031;-58
2023/05/01 02:43:28;;;;;;;12.10;7.00;;;;;;;8.18;65.74;101902.63;7390383;19;20029;-59
2023/05/01 02:45:57;;;;;;;14.20;7.35;;;;;;;8.20;66.08;101900.75;7389223;19;20018;-58
2023/05/01 02:48:26;;;;;;;12.20;6.82;;;;;;;8.21;65.86;101902.47;7389691;19;20014;-58
2023/05/01 02:50:55;;;;;;;12.95;6.40;;;;;;;8.00;66.47;101901.66;7390636;19;20014;-59
2023/05/01 02:53:22;;;;;;;13.23;6.18;;;;;;;7.97;66.45;101896.50;7388461;19;20022;-59
2023/05/01 02:55:49;;;;;;;13.23;6.45;;;;;;;8.03;65.94;101896.25;7385194;19;20042;-59
2023/05/01 02:58:17;;;;;;;13.63;7.30;;;;;;;8.10;65.93;101881.00;7388280;19;20022;-59
2023/05/01 03:00:46;;;;;;;11.75;7.38;;;;;;;8.10;65.97;101883.63;7388413;19;20131;-58
2023/05/01 03:03:15;;;;;;;13.50;7.35;;;;;;;8.14;65.59;101882.56;7389504;19;20024;-59
2023/05/01 03:05:42;;;;;;;11.88;6.72;;;;;;;8.17;65.30;101873.69;7387101;19;20018;-59
2023/05/01 03:08:09;;;;;;;13.18;7.20;;;;;;;8.10;65.26;101877.50;7390061;19;20462;-60
2023/05/01 03:10:39;;;;;;;12.27;6.80;;;;;;;8.09;65.45;101862.59;7390529;19;20398;-58
2023/05/01 03:13:07;;;;;;;13.77;6.78;;;;;;;8.03;65.35;101855.81;7388507;19;20499;-60
2023/05/01 03:15:34;;;;;;;10.15;6.50;;;;;;;8.03;65.17;101861.09;7386788;19;20015;-59
2023/05/01 03:18:01;;;;;;;13.25;6.78;;;;;;;8.07;64.98;101852.97;7389803;19;20039;-60
2023/05/01 03:20:28;;;;;;;13.25;6.88;;;;;;;8.12;64.75;101854.53;7389343;19;20482;-59
2023/05/01 03:22:56;;;;;;;10.52;6.45;;;;;;;8.09;65.02;101854.66;7390117;19;20022;-59
2023/05/01 03:25:23;;;;;;;13.30;6.90;;;;;;;8.07;65.15;101852.13;7388012;19;20046;-61
2023/05/01 03:27:50;;;;;;;11.60;6.95;;;;;;;7.88;65.52;101841.53;7389745;19;20019;-58
2023/05/01 03:30:20;;;;;;;11.02;5.90;;;;;;;8.02;65.06;101840.94;7389807;19;20425;-59
2023/05/01 03:32:47;;;;;;;13.90;6.90;;;;;;;8.01;65.22;101839.19;7390693;19;20212;-59
2023/05/01 03:35:14;;;;;;;10.25;5.90;;;;;;;8.02;65.50;101840.94;7386240;19;20482;-59
2023/05/01 03:37:41;;;;;;;10.55;6.22;;;;;;;7.82;65.82;101841.81;7387732;19;20025;-58
2023/05/01 03:40:09;;;;;;;12.27;6.40;;;;;;;7.47;67.48;101843.34;7394006;19;20019;-59
2023/05/01 03:42:36;;;;;;;11.57;6.35;;;;;;;7.53;68.03;101829.94;7394910;19;20026;-59
2023/05/01 03:45:03;;;;;;;14.45;6.28;;;;;;;7.84;66.80;101836.47;7394470;19;20022;-59
2023/05/01 03:47:33;;;;;;;14.07;6.10;;;;;;;7.87;65.77;101826.66;7397006;19;20089;-59
2023/05/01 03:50:00;;;;;;;12.70;7.13;;;;;;;7.84;65.78;101823.28;7396326;19;20042;-59
2023/05/01 03:52:28;;;;;;;11.52;6.68;;;;;;;7.80;66.09;101828.69;7396499;19;20026;-60
2023/05/01 03:54:55;;;;;;;13.40;6.70;;;;;;;7.82;66.16;101818.94;7395178;19;20022;-60
2023/05/01 03:57:22;;;;;;;10.82;6.18;;;;;;;7.85;65.68;101817.94;7394311;19;20039;-59
2023/05/01 03:59:49;;;;;;;11.00;6.18;;;;;;;7.84;65.56;101812.75;7396105;19;20014;-58
2023/05/01 04:02:17;;;;;;;13.65;6.00;;;;;;;7.88;65.41;101809.88;7395585;19;20506;-59
2023/05/01 04:04:44;;;;;;;11.80;5.88;;;;;;;7.87;65.26;101808.19;7395152;19;20100;-59
2023/05/01 04:07:12;;;;;;;10.45;5.93;;;;;;;7.88;65.42;101809.88;7396223;19;20376;-59
2023/05/01 04:09:39;;;;;;;11.23;6.05;;;;;;;7.80;65.59;101810.25;7394252;19;20014;-59
2023/05/01 04:12:06;;;;;;;11.45;6.28;;;;;;;7.74;65.80;101817.56;7394852;19;20127;-60
2023/05/01 04:14:33;;;;;;;10.20;6.00;;;;;;;7.72;65.76;101816.78;7393357;19;20026;-60
2023/05/01 04:17:00;;;;;;;11.48;6.10;;;;;;;7.79;65.53;101808.53;7393483;19;20476;-60
2023/05/01 04:19:27;;;;;;;12.10;6.95;;;;;;;7.82;65.48;101810.16;7395059;19;20011;-59
2023/05/01 04:21:55;;;;;;;11.65;6.40;;;;;;;7.74;65.51;101820.19;7395052;19;20011;-61
2023/05/01 04:24:22;;;;;;;12.52;6.40;;;;;;;7.92;65.01;101808.81;7394717;19;20015;-60
2023/05/01 04:26:49;;;;;;;10.68;6.10;;;;;;;7.95;65.16;101808.69;7395863;19;20022;-60
2023/05/01 04:29:16;;;;;;;9.38;5.78;;;;;;;7.87;65.20;101810.81;7394784;19;20050;-60
2023/05/01 04:31:43;;;;;;;13.55;6.05;;;;;;;7.82;65.11;101812.78;7395605;19;20361;-60
2023/05/01 04:34:10;;;;;;;10.93;6.88;;;;;;;7.89;64.79;101806.31;7394369;19;20022;-59
2023/05/01 04:36:37;;;;;;;11.15;6.05;;;;;;;7.98;64.14;101805.91;7392631;19;20015;-60
2023/05/01 04:39:04;;;;;;;11.25;6.50;;;;;;;7.98;64.12;101800.66;7393456;19;20047;-59
2023/05/01 04:41:31;;;;;;;13.48;6.60;;;;;;;7.94;64.36;101792.94;7395796;19;20027;-59
2023/05/01 04:43:58;;;;;;;12.43;6.68;;;;;;;7.95;63.90;101790.22;7394642;19;20036;-59
2023/05/01 04:46:25;;;;;;;12.27;6.88;;;;;;;8.00;63.77;101792.66;7393122;19;20019;-58
2023/05/01 04:48:52;;;;;;;13.88;6.82;;;;;;;8.17;63.15;101797.16;7394368;19;20120;-57
2023/05/01 04:51:20;;;;;;;12.32;6.70;;;;;;;8.21;63.32;101793.44;7392619;19;20043;-57
2023/05/01 04:53:47;;;;;;;12.18;6.22;;;;;;;8.22;63.68;101795.16;7394472;19;20018;-57
2023/05/01 04:56:14;;;;;;;10.75;6.00;;;;;;;8.20;64.41;101778.53;7392072;19;20039;-59
2023/05/01 04:58:41;;;;;;;12.75;5.80;;;;;;;8.27;64.41;101780.78;7393959;19;20492;-60
2023/05/01 05:01:08;;;;;;;11.18;6.22;;;;;;;8.38;63.14;101780.31;7393069;19;20124;-59
2023/05/01 05:03:35;;;;;;;14.48;5.50;;;;;;;8.52;62.63;101779.66;7394678;19;20040;-60
2023/05/01 05:06:03;;;;;;;10.40;5.35;;;;;;;8.65;62.40;101790.47;7392289;19;20090;-59
2023/05/01 05:08:30;;;;;;;11.90;5.80;;;;;;;8.69;62.53;101778.81;7394306;19;20022;-59
2023/05/01 05:11:01;;;;;;;12.35;5.90;;;;;;;8.80;62.40;101781.78;7392684;19;20019;-59
2023/05/01 05:13:28;;;;;;;12.98;6.10;;;;;;;8.88;62.73;101778.78;7394529;19;20018;-59
2023/05/01 05:15:55;;;;;;;11.23;5.25;;;;;;;8.97;62.67;101781.81;7391375;19;20043;-59
2023/05/01 05:18:22;;;;;;;9.88;4.82;;;;;;;9.03;62.24;101778.00;7393742;19;20125;-60
2023/05/01 05:20:49;;;;;;;12.10;5.45;;;;;;;9.11;61.85;101772.31;7393926;19;20020;-59
2023/05/01 05:23:16;;;;;;;10.27;4.38;;;;;;;9.13;61.79;101776.59;7393670;19;20035;-58
2023/05/01 05:25:43;;;;;;;11.98;5.03;;;;;;;9.18;60.94;101771.09;7392460;19;20035;-58
2023/05/01 05:28:10;;;;;;;13.15;4.80;;;;;;;9.34;60.68;101774.63;7394421;19;20348;-58
2023/05/01 05:30:37;;;;;;;9.60;4.20;;;;;;;9.39;60.37;101766.47;7392856;19;20010;-60
2023/05/01 05:33:07;;;;;;;11.65;4.68;;;;;;;9.31;60.71;101766.88;7393218;19;20240;-60
2023/05/01 05:35:34;;;;;;;12.07;4.28;;;;;;;9.39;60.89;101772.63;7391447;19;20014;-59
2023/05/01 05:38:01;;;;;;;10.15;4.55;;;;;;;9.47;60.37;101770.44;7391912;19;20036;-58
2023/05/01 05:40:28;;;;;;;11.32;4.13;;;;;;;9.49;60.54;101763.25;7391417;19;20022;-58
2023/05/01 05:42:56;;;;;;;8.27;4.43;;;;;;;9.45;60.14;101764.34;7393666;19;20022;-58
2023/05/01 05:45:23;;;;;;;8.00;4.32;;;;;;;9.47;60.22;101765.13;7391551;19;20496;-58
2023/05/01 05:47:50;;;;;;;11.25;4.55;;;;;;;9.66;59.70;101758.88;7393276;19;20019;-58
2023/05/01 05:50:17;;;;;;;12.55;5.32;;;;;;;9.84;58.63;101759.66;7392999;19;20034;-56
2023/05/01 05:52:44;;;;;;;10.35;4.50;;;;;;;9.87;58.00;101754.19;7392804;19;20018;-58
2023/05/01 05:55:11;;;;;;;8.85;4.03;;;;;;;9.90;57.55;101752.25;7391230;19;20029;-58
2023/05/01 05:57:38;;;;;;;10.60;4.43;;;;;;;10.01;56.81;101749.84;7391104;19;20014;-58
2023/05/01 06:00:06;;;;;;;11.40;4.82;;;;;;;10.07;57.04;101751.28;7392023;19;20025;-59
2023/05/01 06:02:33;;;;;;;9.05;4.20;;;;;;;10.13;56.71;101748.31;7391982;19;20019;-58
2023/05/01 06:05:00;;;;;;;14.00;5.70;;;;;;;10.17;56.39;101746.34;7391409;19;20127;-58
2023/05/01 06:07:27;;;;;;;9.98;4.15;;;;;;;10.31;56.05;101749.13;7390481;19;20029;-58
2023/05/01 06:10:00;;;;;;;13.38;4.90;;;;;;;10.30;55.92;101746.53;7392258;19;20015;-58
2023/05/01 06:12:28;;;;;;;9.18;4.25;;;;;;;10.35;55.53;101742.72;7390306;19;20018;-57
2023/05/01 06:14:56;;;;;;;10.95;4.38;;;;;;;10.43;55.18;101740.47;7390303;19;20030;-58
2023/05/01 06:17:23;;;;;;;12.20;4.10;;;;;;;10.45;55.27;101738.59;7390022;19;20035;-59
2023/05/01 06:19:53;;;;;;;10.43;4.68;;;;;;;10.50;55.17;101733.03;7391616;19;20035;-59
2023/05/01 06:22:21;;;;;;;13.23;4.30;;;;;;;10.54;55.25;101734.56;7391598;19;20014;-59
2023/05/01 06:24:48;;;;;;;11.07;4.68;;;;;;;10.59;54.78;101735.16;7389005;19;20043;-59
2023/05/01 06:27:14;;;;;;;10.85;4.45;;;;;;;10.63;54.64;101736.66;7391725;19;20028;-58
2023/05/01 06:29:41;;;;;;;11.40;4.28;;;;;;;10.66;54.44;101730.34;7391073;19;20047;-57
2023/05/01 06:32:08;;;;;;;10.55;4.47;;;;;;;10.71;54.20;101728.28;7390436;19;20018;-58
2023/05/01 06:34:35;;;;;;;12.35;4.40;;;;;;;10.76;54.39;101730.66;7390832;19;20049;-58
2023/05/01 06:37:04;;;;;;;9.63;4.03;;;;;;;10.86;54.79;101734.47;7388653;19;20035;-55
2023/05/01 06:39:31;;;;;;;10.52;3.92;;;;;;;10.93;53.72;101720.75;7388720;19;20019;-54
2023/05/01 06:41:58;;;;;;;10.10;4.32;;;;;;;11.04;53.20;101727.22;7389270;19;20524;-55
2023/05/01 06:44:25;;;;;;;8.85;3.90;;;;;;;11.08;53.24;101723.44;7390258;19;20019;-57
2023/05/01 06:46:52;;;;;;;9.65;3.63;;;;;;;11.13;52.56;101729.31;7390835;19;20011;-57
2023/05/01 06:49:19;;;;;;;9.05;4.00;;;;;;;11.18;52.27;101728.13;7390053;19;20018;-57
2023/05/01 06:51:46;;;;;;;8.48;3.70;;;;;;;11.15;51.63;101709.72;7389198;19;20491;-56
2023/05/01 06:54:13;;;;;;;12.25;4.93;;;;;;;11.21;51.57;101713.78;7390714;19;20043;-57
2023/05/01 06:56:39;;;;;;;11.50;4.38;;;;;;;11.26;51.05;101711.75;7390649;19;20336;-58
2023/05/01 06:59:07;;;;;;;8.13;3.60;;;;;;;11.18;50.97;101703.38;7391067;19;20384;-58
2023/05/01 07:01:35;;;;;;;8.88;4.03;;;;;;;11.22;51.36;101708.41;7390783;19;20029;-59
2023/05/01 07:04:02;;;;;;;9.32;3.85;;;;;;;11.28;50.88;101703.69;7390591;19;20014;-59
2023/05/01 07:06:31;;;;;;;15.35;4.00;;;;;;;11.32;50.90;101700.72;7389898;19;20499;-59
2023/05/01 07:08:58;;;;;;;7.90;3.75;;;;;;;11.41;50.94;101689.56;7390120;19;20025;-58
2023/05/01 07:11:25;;;;;;;13.60;8.07;;;;;;;11.52;50.78;101694.19;7390500;19;20022;-58
2023/05/01 07:13:53;;;;;;;12.27;6.30;;;;;;;11.63;51.01;101689.06;7391324;19;20491;-57
2023/05/01 07:16:20;;;;;;;10.98;5.40;;;;;;;11.67;50.76;101687.06;7394575;19;20018;-59
2023/05/01 07:18:47;;;;;;;9.18;4.03;;;;;;;11.72;49.69;101679.69;7394613;19;20010;-58
2023/05/01 07:21:14;;;;;;;10.27;3.67;;;;;;;11.77;49.59;101682.03;7397905;19;20035;-57
2023/05/01 07:23:41;;;;;;;8.05;3.70;;;;;;;11.78;49.68;101675.78;7397862;19;20026;-57
2023/05/01 07:26:08;;;;;;;10.93;3.80;;;;;;;11.83;49.83;101677.22;7394462;19;20495;-57
2023/05/01 07:28:35;;;;;;;10.18;3.65;;;;;;;11.94;50.04;101674.75;7397148;19;20504;-57
2023/05/01 07:31:02;;;;;;;9.38;3.35;;;;;;;12.04;49.64;101680.28;7397112;19;20022;-57
2023/05/01 07:33:29;;;;;;;7.78;3.33;;;;;;;12.09;49.46;101682.63;7396238;19;20506;-57
2023/05/01 07:35:56;;;;;;;8.85;3.63;;;;;;;12.13;49.73;101681.47;7394660;19;20015;-58
2023/05/01 07:38:23;;;;;;;8.20;3.45;;;;;;;12.17;49.46;101683.88;7394418;19;20020;-60
2023/05/01 07:40:53;;;;;;;7.43;3.20;;;;;;;12.28;48.94;101677.81;7397426;19;20043;-58
2023/05/01 07:43:20;;;;;;;8.00;4.13;;;;;;;12.28;49.35;101676.97;7397296;19;20453;-58
2023/05/01 07:45:58;;;;;;;10.52;3.70;;;;;;;12.28;49.37;101672.50;7392931;19;20015;-58
2023/05/01 07:48:27;;;;;;;11.07;4.18;;;;;;;12.36;49.53;101672.00;7396387;19;20090;-59
2023/05/01 07:50:55;;;;;;;9.27;3.75;;;;;;;12.41;49.82;101673.41;7397235;19;20026;-59
2023/05/01 07:53:22;;;;;;;8.35;3.45;;;;;;;12.51;49.83;101662.16;7395386;19;20532;-59
2023/05/01 07:55:49;;;;;;;8.55;3.63;;;;;;;12.60;49.59;101665.06;7394126;19;20016;-57
2023/05/01 07:58:16;;;;;;;8.10;3.53;;;;;;;12.60;48.94;101661.56;7394970;19;20051;-57
2023/05/01 08:00:44;;;;;;;9.48;3.53;;;;;;;12.62;49.05;101655.16;7394495;19;20122;-58
2023/05/01 08:03:11;;;;;;;7.70;3.28;;;;;;;12.79;48.80;101658.50;7396105;19;20026;-58
2023/05/01 08:05:40;;;;;;;8.13;3.53;;;;;;;12.93;48.59;101648.63;7394262;19;20014;-58
2023/05/01 08:08:08;;;;;;;11.80;3.60;;;;;;;13.01;48.38;101649.88;7396776;19;20495;-58
2023/05/01 08:10:35;;;;;;;6.80;3.30;;;;;;;13.06;48.12;101640.63;7395388;19;20448;-58
2023/05/01 08:13:02;;;;;;;11.02;3.30;;;;;;;13.15;47.76;101639.13;7394773;19;20022;-58
2023/05/01 08:15:29;;;;;;;8.32;3.40;;;;;;;13.20;48.07;101639.66;7392372;19;20341;-58
2023/05/01 08:17:56;;;;;;;8.70;3.70;;;;;;;13.27;48.17;101635.63;7392742;19;20018;-58
2023/05/01 08:20:23;;;;;;;6.82;2.85;;;;;;;13.30;47.78;101634.56;7395108;19;20480;-58
2023/05/01 08:22:50;;;;;;;8.60;3.28;;;;;;;13.37;47.95;101620.72;7395871;19;20022;-59
2023/05/01 08:25:17;;;;;;;8.73;3.20;;;;;;;13.41;48.03;101626.69;7391234;19;20021;-58
2023/05/01 08:27:44;;;;;;;9.88;3.25;;;;;;;13.45;47.74;101627.31;7395780;19;20018;-58
2023/05/01 08:30:11;;;;;;;7.47;3.15;;;;;;;13.57;47.69;101626.41;7394748;19;20375;-59
2023/05/01 08:32:38;;;;;;;9.10;3.10;;;;;;;13.62;47.67;101625.13;7395276;19;20043;-58
2023/05/01 08:35:05;;;;;;;9.65;3.65;;;;;;;13.62;47.16;101629.59;7392304;19;20030;-58
2023/05/01 08:37:33;;;;;;;10.68;3.65;;;;;;;13.64;47.73;101628.53;7395013;19;20361;-59
2023/05/01 08:40:03;;;;;;;10.20;3.47;;;;;;;13.65;47.93;101622.22;7394768;19;20015;-59
2023/05/01 08:42:30;;;;;;;8.13;3.15;;;;;;;13.68;47.57;101625.66;7394856;19;20040;-59
2023/05/01 08:44:59;;;;;;;7.75;3.15;;;;;;;13.75;47.48;101619.75;7392077;19;20019;-58
2023/05/01 08:47:29;;;;;;;6.47;3.28;;;;;;;13.84;47.88;101624.41;7395389;19;20316;-58
2023/05/01 08:49:58;;;;;;;7.75;3.10;;;;;;;13.91;47.25;101622.16;7394376;19;20491;-58
2023/05/01 08:52:27;;;;;;;10.25;3.65;;;;;;;13.97;47.20;101610.19;7392797;19;20590;-58
2023/05/01 08:54:56;;;;;;;8.50;3.20;;;;;;;14.07;46.89;101609.38;7393154;19;20018;-58
2023/05/01 08:57:24;;;;;;;6.72;3.00;;;;;;;14.07;47.28;101612.03;7392612;19;20011;-57
2023/05/01 08:59:55;;;;;;;9.57;3.35;;;;;;;14.14;46.73;101605.28;7393598;19;20021;-57
2023/05/01 09:02:23;;;;;;;9.95;3.30;;;;;;;14.14;46.45;101597.31;7394706;19;20022;-59
2023/05/01 09:04:51;;;;;;;7.20;3.22;;;;;;;14.19;46.92;101593.44;7393318;19;20010;-60
2023/05/01 09:07:18;;;;;;;8.75;3.30;;;;;;;14.31;45.97;101592.53;7392824;19;20074;-61
2023/05/01 09:09:45;;;;;;;7.97;2.85;;;;;;;14.42;45.35;101581.88;7393790;19;20011;-57
2023/05/01 09:12:23;;;;;;;6.95;2.88;;;;;;;14.59;44.90;101586.81;7392346;19;20019;-57
2023/05/01 09:14:52;;;;;;;7.53;3.15;;;;;;;14.69;44.79;101586.97;7392566;19;20035;-56
2023/05/01 09:17:21;;;;;;;9.07;3.22;;;;;;;14.76;44.57;101593.47;7391810;19;20010;-57
2023/05/01 09:19:49;;;;;;;9.93;3.47;;;;;;;14.80;44.73;101588.75;7392972;19;20018;-55
2023/05/01 09:22:17;;;;;;;8.32;3.42;;;;;;;14.80;44.64;101599.44;7393776;19;20052;-57
2023/05/01 09:24:45;;;;;;;8.98;3.30;;;;;;;14.76;45.22;101598.81;7392164;19;20059;-57
2023/05/01 09:27:13;;;;;;;7.72;2.97;;;;;;;14.68;45.52;101598.56;7393838;19;20030;-56
2023/05/01 09:29:43;;;;;;;6.22;2.90;;;;;;;14.65;44.56;101584.63;7393109;19;20047;-55
2023/05/01 09:32:14;;;;;;;7.78;3.38;;;;;;;14.60;44.60;101601.81;7393240;19;20078;-56
2023/05/01 09:34:43;;;;;;;8.95;3.10;;;;;;;14.59;45.65;101592.13;7391589;19;20040;-56
2023/05/01 09:37:32;;;;;;;9.20;3.17;;;;;;;14.65;45.03;101588.13;7390346;19;20047;-57
2023/05/01 09:40:13;;;;;;;10.45;3.38;;;;;;;14.64;45.60;101591.78;7390617;19;20049;-55
2023/05/01 09:42:48;;;;;;;8.70;3.25;;;;;;;14.69;45.86;101594.97;7393072;19;20018;-56
2023/05/01 09:45:17;;;;;;;8.40;3.22;;;;;;;14.71;45.91;101584.16;7391203;19;20022;-55
2023/05/01 09:47:45;;;;;;;10.13;3.63;;;;;;;14.81;45.79;101587.81;7393097;19;20550;-57
2023/05/01 09:50:31;;;;;;;8.05;3.58;;;;;;;14.84;45.78;101582.22;7392498;19;20022;-56
2023/05/01 09:53:03;;;;;;;11.02;3.45;;;;;;;14.80;45.93;101583.44;7392499;19;20022;-56
2023/05/01 09:55:32;;;;;;;8.47;3.30;;;;;;;14.77;46.00;101581.88;7390253;19;20086;-58
2023/05/01 09:57:59;;;;;;;8.77;3.20;;;;;;;14.71;46.05;101574.34;7390674;19;20014;-59
2023/05/01 10:00:26;;;;;;;6.95;3.30;;;;;;;14.77;45.85;101576.53;7391568;19;20042;-59
2023/05/01 10:02:53;;;;;;;8.05;3.08;;;;;;;14.81;45.24;101571.81;7393010;19;20033;-58
2023/05/01 10:05:21;;;;;;;9.32;3.88;;;;;;;14.89;44.96;101577.41;7390627;19;20022;-58
2023/05/01 10:08:02;;;;;;;7.47;3.17;;;;;;;14.96;44.46;101565.28;7391854;19;20018;-58
2023/05/01 10:10:32;;;;;;;9.77;3.40;;;;;;;14.96;44.92;101567.09;7392105;19;20029;-59
2023/05/01 10:13:16;;;;;;;9.63;3.38;;;;;;;15.08;44.55;101560.78;7392277;19;20007;-59
2023/05/01 10:15:45;;;;;;;;;;;;;;;15.03;45.36;101561.16;7390570;19;20439;-59
2023/05/01 10:18:13;;;;;;;9.90;3.42;;;;;;;15.05;44.90;101553.84;7391406;19;20296;-58
2023/05/01 10:20:40;;;;;;;9.98;3.78;;;;;;;15.19;44.46;101567.94;7389841;19;20022;-58
2023/05/01 10:23:08;;;;;;;10.27;3.88;;;;;;;15.29;44.34;101559.03;7390326;19;20029;-58
2023/05/01 10:25:35;;;;;;;7.50;3.55;;;;;;;15.36;44.15;101556.72;7390290;19;20023;-59
2023/05/01 10:28:06;;;;;;;9.35;3.35;;;;;;;15.33;44.34;101551.63;7391740;19;20018;-59
2023/05/01 10:30:34;;;;;;;9.25;3.28;;;;;;;15.42;44.36;101558.06;7391077;19;20130;-58
2023/05/01 10:33:02;;;;;;;6.88;2.83;;;;;;;15.54;43.58;101551.72;7390794;19;20015;-58
2023/05/01 10:35:39;;;;;;;7.90;3.47;;;;;;;15.66;43.82;101547.22;7389832;19;20357;-59
2023/05/01 10:38:18;;;;;;;6.07;2.90;;;;;;;15.74;43.30;101550.09;7390444;19;20017;-59
2023/05/01 10:40:46;;;;;;;8.13;2.80;;;;;;;15.78;41.48;101552.38;7391395;19;20018;-59
2023/05/01 10:43:18;;;;;;;7.25;2.50;;;;;;;15.89;40.41;101553.34;7391036;19;20029;-57
2023/05/01 10:45:46;;;;;;;6.85;2.88;;;;;;;15.89;40.64;101550.66;7391415;19;20010;-58
2023/05/01 10:48:39;;;;;;;8.70;3.10;;;;;;;16.06;39.76;101547.41;7389845;19;20025;-58
2023/05/01 10:51:08;;;;;;;7.13;2.75;;;;;;;16.11;39.87;101542.53;7388055;19;20042;-58
2023/05/01 10:53:35;;;;;;;7.30;2.65;;;;;;;16.19;40.03;101541.91;7390772;19;20018;-58
2023/05/01 10:56:04;;;;;;;7.45;3.03;;;;;;;16.27;39.95;101548.28;7390253;19;20019;-57
2023/05/01 10:58:51;;;;;;;7.05;2.78;;;;;;;16.37;39.24;101534.97;7387924;19;20047;-59
2023/05/01 11:01:30;;;;;;;5.60;2.50;;;;;;;16.36;39.17;101535.94;7388556;19;20014;-58
2023/05/01 11:04:09;;;;;;;5.68;2.58;;;;;;;16.38;40.52;101533.16;7390958;19;20027;-56
2023/05/01 11:06:39;;;;;;;6.03;2.60;;;;;;;16.29;40.81;101513.38;7390388;19;20023;-57
2023/05/01 11:09:35;;;;;;;9.23;2.95;;;;;;;16.28;40.89;101512.53;7388795;19;20010;-57
2023/05/01 11:12:02;;;;;;;6.50;2.88;;;;;;;16.40;40.98;101509.78;7390297;19;20019;-57
2023/05/01 11:14:55;;;;;;;9.18;2.80;;;;;;;16.49;40.26;101503.66;7388895;19;20491;-58
2023/05/01 11:17:56;;;;;;;;;;;;;;;16.36;41.09;101495.00;7390711;19;20510;-59
2023/05/01 11:20:23;;;;;;;8.27;3.00;;;;;;;16.42;41.40;101494.47;7386810;19;19930;-57
2023/05/01 11:22:51;;;;;;;7.85;2.97;;;;;;;16.52;41.86;101501.56;7389823;19;20039;-58
2023/05/01 11:25:20;;;;;;;5.72;2.72;;;;;;;16.71;41.22;101497.28;7390021;19;20018;-57
2023/05/01 11:27:49;;;;;;;5.85;2.47;;;;;;;16.76;40.74;101495.09;7389937;19;20015;-60
2023/05/01 11:30:17;;;;;;;6.22;2.60;;;;;;;16.71;41.01;101484.78;7388435;19;20018;-58
2023/05/01 11:32:45;;;;;;;8.40;2.75;;;;;;;16.67;40.74;101486.00;7389736;19;20014;-58
2023/05/01 11:35:17;;;;;;;6.60;2.50;;;;;;;16.68;39.82;101487.72;7388268;19;20015;-59